createdAt,value
2023-05-19T00:00:59.610Z,31.64
2023-05-19T00:01:59.639Z,31.69
2023-05-19T00:02:59.759Z,31.67
2023-05-19T00:03:59.640Z,31.65
2023-05-19T00:04:59.669Z,31.69
2023-05-19T00:05:59.770Z,31.68
2023-05-19T00:06:59.708Z,31.66
2023-05-19T00:07:59.736Z,31.65
2023-05-19T00:08:59.770Z,31.65
2023-05-19T00:09:59.765Z,31.66
2023-05-19T00:10:59.778Z,31.66
2023-05-19T00:11:59.796Z,31.68
2023-05-19T00:12:59.834Z,31.69
2023-05-19T00:13:59.928Z,31.66
2023-05-19T00:14:59.883Z,31.68
2023-05-19T00:15:59.936Z,31.66
2023-05-19T00:16:59.921Z,31.67
2023-05-19T00:17:59.946Z,31.66
2023-05-19T00:19:00.075Z,31.66
2023-05-19T00:19:59.971Z,31.68
2023-05-19T00:20:59.995Z,31.68
2023-05-19T00:22:00.019Z,31.68
2023-05-19T00:23:00.042Z,31.69
2023-05-19T00:24:00.142Z,31.71
2023-05-19T00:25:00.155Z,31.70
2023-05-19T00:26:00.115Z,31.70
2023-05-19T00:27:00.133Z,31.69
2023-05-19T00:28:00.137Z,31.68
2023-05-19T00:29:00.132Z,31.70
2023-05-19T00:30:00.171Z,31.71
2023-05-19T00:31:00.194Z,31.71
2023-05-19T00:32:00.313Z,31.74
2023-05-19T00:33:00.288Z,31.73
2023-05-19T00:34:00.253Z,31.72
2023-05-19T00:35:00.276Z,31.74
2023-05-19T00:36:00.264Z,31.74
2023-05-19T00:37:00.303Z,31.75
2023-05-19T00:38:00.295Z,31.73
2023-05-19T00:39:00.319Z,31.76
2023-05-19T00:40:00.364Z,31.74
2023-05-19T00:41:00.416Z,31.78
2023-05-19T00:42:00.452Z,31.77
2023-05-19T00:43:00.401Z,31.74
2023-05-19T00:44:00.420Z,31.73
2023-05-19T00:45:00.470Z,31.73
2023-05-19T00:46:00.517Z,31.72
2023-05-19T00:47:00.569Z,31.76
2023-05-19T00:48:00.509Z,31.77
2023-05-19T00:49:00.522Z,31.79
2023-05-19T00:50:00.571Z,31.79
2023-05-19T00:51:00.573Z,31.77
2023-05-19T00:52:00.587Z,31.78
2023-05-19T00:53:00.610Z,31.81
2023-05-19T00:54:00.630Z,31.80
2023-05-19T00:55:00.660Z,31.81
2023-05-19T00:56:00.729Z,31.83
2023-05-19T00:57:00.716Z,31.80
2023-05-19T00:58:00.730Z,31.81
2023-05-19T00:59:00.726Z,31.84
2023-05-19T01:00:00.771Z,31.84
2023-05-19T01:01:00.848Z,31.82
2023-05-19T01:02:00.781Z,31.82
2023-05-19T01:03:00.926Z,31.82
2023-05-19T01:04:00.953Z,31.82
2023-05-19T01:05:00.850Z,31.81
2023-05-19T01:06:00.897Z,31.84
2023-05-19T01:07:00.919Z,31.82
2023-05-19T01:08:00.922Z,31.85
2023-05-19T01:09:00.919Z,31.83
2023-05-19T01:10:00.955Z,31.82
2023-05-19T01:11:00.966Z,31.81
2023-05-19T01:12:00.991Z,31.82
2023-05-19T01:13:00.992Z,31.82
2023-05-19T01:14:01.031Z,31.81
2023-05-19T01:15:01.029Z,31.86
2023-05-19T01:16:01.107Z,31.86
2023-05-19T01:17:01.093Z,31.85
2023-05-19T01:18:01.170Z,31.86
2023-05-19T01:19:01.126Z,31.87
2023-05-19T01:20:01.174Z,31.86
2023-05-19T01:21:01.145Z,31.89
2023-05-19T01:22:01.235Z,31.90
2023-05-19T01:23:01.185Z,31.93
2023-05-19T01:24:01.216Z,31.94
2023-05-19T01:25:01.238Z,31.91
2023-05-19T01:26:01.279Z,31.93
2023-05-19T01:27:01.287Z,31.94
2023-05-19T01:28:01.315Z,31.94
2023-05-19T01:29:01.416Z,31.93
2023-05-19T01:30:01.352Z,31.92
2023-05-19T01:31:01.369Z,31.93
2023-05-19T01:32:01.409Z,31.95
2023-05-19T01:33:01.482Z,31.94
2023-05-19T01:34:01.479Z,31.96
2023-05-19T01:35:01.468Z,31.97
2023-05-19T01:36:01.779Z,31.96
2023-05-19T01:37:01.493Z,31.99
2023-05-19T01:38:01.510Z,31.99
2023-05-19T01:39:01.555Z,32.01
2023-05-19T01:40:01.562Z,32.04
2023-05-19T01:41:01.631Z,32.00
2023-05-19T01:42:01.600Z,32.01
2023-05-19T01:43:01.649Z,32.03
2023-05-19T01:44:01.675Z,32.01
2023-05-19T01:45:01.693Z,32.00
2023-05-19T01:46:01.743Z,32.02
2023-05-19T01:47:01.731Z,32.02
2023-05-19T01:48:01.810Z,32.02
2023-05-19T01:49:01.759Z,32.04
2023-05-19T01:50:01.792Z,32.02
2023-05-19T01:51:01.801Z,32.06
2023-05-19T01:52:01.834Z,32.10
2023-05-19T01:53:01.847Z,32.09
2023-05-19T01:54:01.885Z,32.09
2023-05-19T01:55:01.899Z,32.06
2023-05-19T01:56:01.914Z,32.07
2023-05-19T01:57:01.929Z,32.07
2023-05-19T01:58:01.993Z,32.06
2023-05-19T01:59:01.986Z,32.07
2023-05-19T02:00:01.990Z,32.07
2023-05-19T02:01:02.072Z,32.11
2023-05-19T02:02:02.051Z,32.09
2023-05-19T02:03:02.139Z,32.10
2023-05-19T02:04:02.081Z,32.11
2023-05-19T02:05:02.126Z,32.11
2023-05-19T02:06:02.153Z,32.11
2023-05-19T02:07:02.137Z,32.08
2023-05-19T02:08:02.142Z,32.11
2023-05-19T02:09:02.180Z,32.10
2023-05-19T02:10:02.189Z,32.10
2023-05-19T02:11:02.216Z,32.13
2023-05-19T02:12:02.224Z,32.12
2023-05-19T02:13:02.246Z,32.13
2023-05-19T02:14:02.276Z,32.10
2023-05-19T02:15:02.295Z,32.12
2023-05-19T02:16:02.347Z,32.11
2023-05-19T02:17:02.368Z,32.11
2023-05-19T02:18:02.388Z,32.09
2023-05-19T02:19:02.400Z,32.09
2023-05-19T02:20:02.392Z,32.10
2023-05-19T02:21:02.440Z,32.11
2023-05-19T02:22:02.442Z,32.11
2023-05-19T02:23:02.482Z,32.10
2023-05-19T02:24:02.503Z,32.10
2023-05-19T02:25:02.520Z,32.12
2023-05-19T02:26:02.531Z,32.13
2023-05-19T02:27:02.566Z,32.14
2023-05-19T02:28:02.563Z,32.12
2023-05-19T02:29:02.604Z,32.11
2023-05-19T02:30:02.608Z,32.11
2023-05-19T02:31:02.628Z,32.12
2023-05-19T02:32:02.723Z,32.15
2023-05-19T02:33:02.720Z,32.12
2023-05-19T02:34:02.698Z,32.14
2023-05-19T02:35:02.722Z,32.15
2023-05-19T02:36:02.782Z,32.14
2023-05-19T02:37:02.776Z,32.16
2023-05-19T02:38:02.799Z,32.17
2023-05-19T02:39:02.798Z,32.15
2023-05-19T02:40:02.846Z,32.16
2023-05-19T02:41:02.854Z,32.17
2023-05-19T02:42:02.866Z,32.17
2023-05-19T02:43:02.894Z,32.15
2023-05-19T02:44:02.917Z,32.13
2023-05-19T02:45:02.930Z,32.18
2023-05-19T02:46:02.968Z,32.17
2023-05-19T02:47:02.987Z,32.16
2023-05-19T02:48:03.180Z,32.18
2023-05-19T02:49:03.047Z,32.16
2023-05-19T02:50:03.042Z,32.18
2023-05-19T02:51:03.091Z,32.19
2023-05-19T02:52:03.092Z,32.18
2023-05-19T02:53:03.088Z,32.22
2023-05-19T02:54:03.127Z,32.19
2023-05-19T02:55:03.148Z,32.21
2023-05-19T02:56:03.226Z,32.22
2023-05-19T02:57:03.191Z,32.22
2023-05-19T02:58:03.218Z,32.21
2023-05-19T02:59:03.228Z,32.21
2023-05-19T03:00:03.241Z,32.21
2023-05-19T03:01:03.267Z,32.22
2023-05-19T03:02:03.316Z,32.24
2023-05-19T03:03:03.375Z,32.21
2023-05-19T03:04:03.516Z,32.25
2023-05-19T03:05:03.358Z,32.22
2023-05-19T03:06:03.365Z,32.22
2023-05-19T03:07:03.380Z,32.25
2023-05-19T03:08:03.396Z,32.28
2023-05-19T03:09:03.418Z,32.22
2023-05-19T03:10:03.517Z,32.25
2023-05-19T03:11:03.510Z,32.26
2023-05-19T03:12:03.522Z,32.25
2023-05-19T03:13:03.478Z,32.25
2023-05-19T03:14:03.508Z,32.25
2023-05-19T03:15:03.537Z,32.25
2023-05-19T03:16:03.598Z,32.27
2023-05-19T03:17:03.585Z,32.25
2023-05-19T03:18:03.656Z,32.28
2023-05-19T03:19:03.661Z,32.24
2023-05-19T03:20:03.663Z,32.25
2023-05-19T03:21:03.684Z,32.27
2023-05-19T03:22:03.756Z,32.27
2023-05-19T03:23:03.704Z,32.31
2023-05-19T03:24:03.738Z,32.29
2023-05-19T03:25:03.888Z,32.27
2023-05-19T03:26:03.778Z,32.28
2023-05-19T03:27:03.880Z,32.29
2023-05-19T03:28:03.955Z,32.31
2023-05-19T03:29:03.930Z,32.28
2023-05-19T03:30:06.274Z,32.31
2023-05-19T03:31:03.910Z,32.28
2023-05-19T03:32:03.946Z,32.28
2023-05-19T03:33:03.943Z,32.31
2023-05-19T03:34:03.891Z,32.30
2023-05-19T03:35:03.844Z,32.33
2023-05-19T03:36:03.921Z,32.29
2023-05-19T03:37:03.843Z,32.33
2023-05-19T03:38:03.834Z,32.29
2023-05-19T03:39:03.835Z,32.30
2023-05-19T03:40:03.802Z,32.31
2023-05-19T03:41:03.831Z,32.33
2023-05-19T03:42:03.801Z,32.32
2023-05-19T03:43:03.802Z,32.32
2023-05-19T03:44:03.789Z,32.34
2023-05-19T03:45:03.776Z,32.32
2023-05-19T03:46:03.853Z,32.32
2023-05-19T03:47:03.821Z,32.33
2023-05-19T03:48:03.822Z,32.33
2023-05-19T03:49:03.760Z,32.34
2023-05-19T03:50:03.734Z,32.34
2023-05-19T03:51:03.742Z,32.33
2023-05-19T03:52:03.775Z,32.35
2023-05-19T03:53:03.736Z,32.38
2023-05-19T03:54:03.702Z,32.34
2023-05-19T03:55:03.712Z,32.29
2023-05-19T03:56:03.695Z,32.33
2023-05-19T03:57:03.692Z,32.32
2023-05-19T03:58:03.684Z,32.32
2023-05-19T03:59:03.675Z,32.32
2023-05-19T04:00:03.658Z,32.34
2023-05-19T04:01:03.683Z,32.30
2023-05-19T04:02:03.670Z,32.34
2023-05-19T04:03:03.686Z,32.31
2023-05-19T04:04:03.681Z,32.35
2023-05-19T04:05:03.619Z,32.29
2023-05-19T04:06:03.629Z,32.32
2023-05-19T04:07:03.639Z,32.29
2023-05-19T04:08:03.642Z,32.30
2023-05-19T04:09:03.591Z,32.31
2023-05-19T04:10:03.576Z,32.33
2023-05-19T04:11:03.581Z,32.29
2023-05-19T04:12:03.580Z,32.29
2023-05-19T04:13:03.575Z,32.30
2023-05-19T04:14:03.569Z,32.33
2023-05-19T04:15:03.569Z,32.30
2023-05-19T04:16:03.594Z,32.33
2023-05-19T04:17:03.549Z,32.33
2023-05-19T04:18:03.536Z,32.32
2023-05-19T04:19:03.606Z,32.31
2023-05-19T04:20:03.532Z,32.29
2023-05-19T04:21:03.511Z,32.31
2023-05-19T04:22:03.498Z,32.27
2023-05-19T04:23:03.490Z,32.30
2023-05-19T04:24:03.496Z,32.32
2023-05-19T04:25:03.481Z,32.30
2023-05-19T04:26:03.539Z,32.29
2023-05-19T04:27:03.481Z,32.30
2023-05-19T04:28:03.481Z,32.33
2023-05-19T04:29:03.452Z,32.27
2023-05-19T04:30:03.452Z,32.27
2023-05-19T04:31:03.466Z,32.28
2023-05-19T04:32:03.426Z,32.29
2023-05-19T04:33:03.465Z,32.27
2023-05-19T04:34:03.430Z,32.29
2023-05-19T04:35:03.407Z,32.27
2023-05-19T04:36:03.409Z,32.27
2023-05-19T04:37:03.384Z,32.26
2023-05-19T04:38:03.424Z,32.28
2023-05-19T04:39:03.386Z,32.28
2023-05-19T04:40:03.367Z,32.28
2023-05-19T04:41:03.363Z,32.27
2023-05-19T04:42:03.376Z,32.25
2023-05-19T04:43:03.347Z,32.25
2023-05-19T04:44:03.354Z,32.26
2023-05-19T04:45:03.356Z,32.25
2023-05-19T04:46:03.336Z,32.24
2023-05-19T04:47:03.393Z,32.22
2023-05-19T04:48:03.386Z,32.24
2023-05-19T04:49:03.311Z,32.21
2023-05-19T04:50:03.306Z,32.21
2023-05-19T04:51:03.338Z,32.18
2023-05-19T04:52:03.352Z,32.18
2023-05-19T04:53:03.386Z,32.15
2023-05-19T04:54:03.395Z,32.11
2023-05-19T04:55:03.380Z,32.06
2023-05-19T04:56:03.419Z,32.02
2023-05-19T04:57:03.402Z,31.97
2023-05-19T04:58:03.430Z,31.99
2023-05-19T04:59:03.411Z,31.98
2023-05-19T05:00:03.444Z,31.97
2023-05-19T05:01:03.442Z,32.00
2023-05-19T05:02:03.469Z,32.03
2023-05-19T05:03:03.546Z,32.04
2023-05-19T05:04:03.555Z,32.04
2023-05-19T05:05:03.441Z,32.09
2023-05-19T05:06:03.499Z,32.08
2023-05-19T05:07:03.504Z,32.06
2023-05-19T05:08:03.509Z,32.09
2023-05-19T05:09:03.484Z,32.18
2023-05-19T05:10:03.489Z,32.17
2023-05-19T05:11:03.516Z,32.18
2023-05-19T05:12:03.518Z,32.17
2023-05-19T05:13:03.527Z,32.18
2023-05-19T05:14:03.523Z,32.18
2023-05-19T05:15:03.552Z,32.20
2023-05-19T05:16:03.598Z,32.19
2023-05-19T05:17:03.576Z,32.18
2023-05-19T05:18:03.640Z,32.20
2023-05-19T05:19:03.600Z,32.20
2023-05-19T05:20:03.604Z,32.21
2023-05-19T05:21:03.612Z,32.22
2023-05-19T05:22:03.642Z,32.21
2023-05-19T05:23:03.650Z,32.24
2023-05-19T05:24:03.645Z,32.23
2023-05-19T05:25:03.661Z,32.21
2023-05-19T05:26:03.704Z,32.21
2023-05-19T05:27:03.721Z,32.21
2023-05-19T05:28:03.745Z,32.23
2023-05-19T05:29:03.732Z,32.23
2023-05-19T05:30:03.724Z,32.21
2023-05-19T05:31:03.783Z,32.18
2023-05-19T05:32:03.833Z,32.21
2023-05-19T05:33:03.906Z,32.18
2023-05-19T05:34:03.766Z,32.17
2023-05-19T05:35:03.835Z,32.16
2023-05-19T05:36:03.848Z,32.12
2023-05-19T05:37:03.817Z,32.12
2023-05-19T05:38:03.806Z,32.10
2023-05-19T05:39:03.834Z,32.08
2023-05-19T05:40:03.834Z,32.07
2023-05-19T05:41:03.873Z,32.05
2023-05-19T05:42:03.859Z,32.04
2023-05-19T05:43:03.861Z,32.04
2023-05-19T05:44:03.858Z,32.05
2023-05-19T05:45:03.861Z,32.06
2023-05-19T05:46:03.918Z,32.05
2023-05-19T05:47:03.899Z,32.04
2023-05-19T05:48:03.978Z,32.05
2023-05-19T05:49:03.900Z,32.03
2023-05-19T05:50:03.880Z,32.02
2023-05-19T05:51:03.889Z,32.05
2023-05-19T05:52:06.352Z,32.02
2023-05-19T05:53:03.869Z,32.02
2023-05-19T05:54:03.863Z,32.01
2023-05-19T05:55:03.872Z,32.00
2023-05-19T05:56:03.870Z,32.03
2023-05-19T05:57:03.859Z,31.99
2023-05-19T05:58:03.860Z,31.98
2023-05-19T05:59:03.862Z,31.97
2023-05-19T06:00:03.859Z,31.98
2023-05-19T06:01:03.846Z,31.97
2023-05-19T06:02:03.913Z,31.98
2023-05-19T06:03:03.918Z,32.00
2023-05-19T06:04:03.818Z,32.01
2023-05-19T06:05:03.833Z,32.04
2023-05-19T06:06:03.898Z,32.04
2023-05-19T06:07:03.800Z,32.01
2023-05-19T06:08:03.803Z,32.04
2023-05-19T06:09:03.809Z,32.03
2023-05-19T06:10:03.790Z,32.05
2023-05-19T06:11:03.784Z,32.04
2023-05-19T06:12:03.765Z,32.01
2023-05-19T06:13:03.763Z,32.02
2023-05-19T06:14:03.756Z,32.02
2023-05-19T06:15:03.750Z,32.01
2023-05-19T06:16:03.780Z,31.99
2023-05-19T06:17:03.720Z,31.98
2023-05-19T06:18:03.802Z,31.97
2023-05-19T06:19:03.743Z,31.96
2023-05-19T06:20:03.726Z,31.97
2023-05-19T06:21:03.710Z,31.93
2023-05-19T06:22:03.700Z,31.89
2023-05-19T06:23:03.696Z,31.89
2023-05-19T06:24:03.685Z,31.90
2023-05-19T06:25:03.679Z,31.88
2023-05-19T06:26:03.669Z,31.90
2023-05-19T06:27:03.669Z,31.89
2023-05-19T06:28:03.690Z,31.88
2023-05-19T06:29:03.668Z,31.89
2023-05-19T06:30:03.645Z,31.88
2023-05-19T06:31:03.703Z,31.91
2023-05-19T06:32:03.617Z,31.86
2023-05-19T06:33:03.730Z,31.84
2023-05-19T06:34:03.600Z,31.85
2023-05-19T06:35:03.593Z,31.86
2023-05-19T06:36:03.592Z,31.84
2023-05-19T06:37:03.607Z,31.84
2023-05-19T06:38:03.639Z,31.85
2023-05-19T06:39:03.596Z,31.84
2023-05-19T06:40:03.566Z,31.83
2023-05-19T06:41:03.578Z,31.80
2023-05-19T06:42:03.567Z,31.74
2023-05-19T06:43:03.545Z,31.70
2023-05-19T06:44:03.529Z,31.67
2023-05-19T06:45:03.555Z,31.68
2023-05-19T06:46:03.534Z,31.68
2023-05-19T06:47:03.587Z,31.66
2023-05-19T06:48:03.584Z,31.68
2023-05-19T06:49:03.509Z,31.69
2023-05-19T06:50:03.511Z,31.68
2023-05-19T06:51:03.496Z,31.67
2023-05-19T06:52:03.475Z,31.71
2023-05-19T06:53:03.489Z,31.72
2023-05-19T06:54:03.460Z,31.74
2023-05-19T06:55:03.451Z,31.74
2023-05-19T06:56:03.465Z,31.75
2023-05-19T06:57:03.465Z,31.77
2023-05-19T06:58:03.467Z,31.78
2023-05-19T06:59:03.448Z,31.79
2023-05-19T07:00:03.425Z,31.78
2023-05-19T07:01:03.422Z,31.80
2023-05-19T07:02:03.448Z,31.81
2023-05-19T07:03:03.497Z,31.78
2023-05-19T07:04:03.498Z,31.77
2023-05-19T07:05:03.386Z,31.78
2023-05-19T07:06:04.571Z,31.75
2023-05-19T07:07:03.460Z,31.74
2023-05-19T07:08:03.463Z,31.73
2023-05-19T07:09:03.488Z,31.75
2023-05-19T07:10:03.557Z,31.75
2023-05-19T07:11:03.593Z,31.72
2023-05-19T07:12:03.663Z,31.69
2023-05-19T07:13:03.723Z,31.69
2023-05-19T07:14:03.766Z,31.71
2023-05-19T07:15:03.819Z,31.72
2023-05-19T07:16:03.900Z,31.72
2023-05-19T07:17:03.956Z,31.72
2023-05-19T07:18:04.061Z,31.73
2023-05-19T07:19:04.102Z,31.72
2023-05-19T07:20:04.114Z,31.77
2023-05-19T07:21:04.162Z,31.77
2023-05-19T07:22:04.207Z,31.75
2023-05-19T07:23:04.315Z,31.80
2023-05-19T07:24:04.322Z,31.79
2023-05-19T07:25:04.399Z,31.80
2023-05-19T07:26:04.455Z,31.81
2023-05-19T07:27:04.523Z,31.82
2023-05-19T07:28:04.571Z,31.83
2023-05-19T07:29:04.617Z,31.80
2023-05-19T07:30:04.680Z,31.82
2023-05-19T07:31:04.729Z,31.80
2023-05-19T07:32:04.832Z,31.80
2023-05-19T07:33:04.888Z,31.80
2023-05-19T07:34:04.902Z,31.74
2023-05-19T07:35:04.976Z,31.74
2023-05-19T07:36:05.037Z,31.71
2023-05-19T07:37:05.126Z,31.69
2023-05-19T07:38:05.136Z,31.69
2023-05-19T07:39:05.379Z,31.69
2023-05-19T07:40:05.267Z,31.67
2023-05-19T07:41:05.332Z,31.67
2023-05-19T07:42:05.330Z,31.64
2023-05-19T07:43:05.398Z,31.63
2023-05-19T07:44:05.458Z,31.60
2023-05-19T07:45:05.485Z,31.57
2023-05-19T07:46:05.604Z,31.58
2023-05-19T07:47:05.590Z,31.56
2023-05-19T07:48:05.720Z,31.57
2023-05-19T07:49:05.700Z,31.55
2023-05-19T07:50:05.768Z,31.54
2023-05-19T07:51:05.840Z,31.49
2023-05-19T07:52:05.881Z,31.46
2023-05-19T07:53:06.003Z,31.40
2023-05-19T07:54:06.067Z,31.27
2023-05-19T07:55:06.051Z,31.25
2023-05-19T07:56:06.061Z,31.21
2023-05-19T07:57:06.108Z,31.28
2023-05-19T07:58:06.132Z,31.24
2023-05-19T07:59:06.185Z,31.30
2023-05-19T08:00:06.247Z,31.30
2023-05-19T08:01:06.285Z,31.28
2023-05-19T08:02:06.393Z,31.23
2023-05-19T08:03:06.521Z,31.21
2023-05-19T08:04:06.455Z,31.15
2023-05-19T08:05:06.406Z,31.17
2023-05-19T08:06:06.444Z,31.17
2023-05-19T08:07:06.474Z,31.14
2023-05-19T08:08:06.517Z,31.12
2023-05-19T08:09:06.560Z,31.11
2023-05-19T08:10:06.629Z,31.06
2023-05-19T08:11:06.596Z,31.05
2023-05-19T08:12:06.626Z,30.99
2023-05-19T08:13:06.622Z,30.96
2023-05-19T08:14:06.675Z,30.87
2023-05-19T08:15:06.707Z,30.80
2023-05-19T08:16:06.755Z,30.78
2023-05-19T08:17:06.735Z,30.82
2023-05-19T08:18:06.793Z,30.81
2023-05-19T08:19:06.863Z,30.74
2023-05-19T08:20:06.927Z,30.69
2023-05-19T08:21:06.945Z,30.63
2023-05-19T08:22:06.932Z,30.63
2023-05-19T08:23:06.952Z,30.64
2023-05-19T08:24:06.955Z,30.79
2023-05-19T08:25:06.975Z,30.91
2023-05-19T08:26:07.004Z,31.03
2023-05-19T08:27:07.031Z,31.09
2023-05-19T08:28:07.077Z,31.17
2023-05-19T08:29:07.119Z,31.20
2023-05-19T08:30:07.165Z,31.24
2023-05-19T08:31:07.223Z,31.29
2023-05-19T08:32:07.250Z,31.30
2023-05-19T08:33:07.422Z,31.36
2023-05-19T08:34:07.314Z,31.39
2023-05-19T08:35:07.365Z,31.41
2023-05-19T08:36:07.416Z,31.44
2023-05-19T08:37:07.465Z,31.44
2023-05-19T08:38:07.500Z,31.44
2023-05-19T08:39:07.548Z,31.43
2023-05-19T08:40:07.610Z,31.46
2023-05-19T08:41:07.637Z,31.48
2023-05-19T08:42:07.701Z,31.48
2023-05-19T08:43:07.750Z,31.49
2023-05-19T08:44:07.804Z,31.50
2023-05-19T08:45:07.845Z,31.50
2023-05-19T08:46:07.934Z,31.47
2023-05-19T08:47:08.140Z,31.52
2023-05-19T08:48:08.064Z,31.53
2023-05-19T08:49:08.042Z,31.52
2023-05-19T08:50:08.104Z,31.55
2023-05-19T08:51:08.156Z,31.57
2023-05-19T08:52:08.198Z,31.58
2023-05-19T08:53:12.747Z,31.60
2023-05-19T08:54:09.268Z,31.59
2023-05-19T08:55:08.260Z,31.62
2023-05-19T08:56:08.256Z,31.62
2023-05-19T08:57:08.233Z,31.61
2023-05-19T08:58:08.227Z,31.60
2023-05-19T08:59:08.231Z,31.63
2023-05-19T09:00:08.194Z,31.63
2023-05-19T09:01:08.261Z,31.63
2023-05-19T09:02:08.190Z,31.63
2023-05-19T09:04:08.257Z,31.64
2023-05-19T09:05:08.391Z,31.52
2023-05-19T09:06:08.251Z,31.41
2023-05-19T09:07:08.151Z,31.33
2023-05-19T09:08:08.151Z,31.26
2023-05-19T09:09:08.130Z,31.20
2023-05-19T09:10:08.144Z,31.10
2023-05-19T09:11:08.135Z,31.08
2023-05-19T09:12:08.130Z,31.03
2023-05-19T09:13:08.117Z,31.03
2023-05-19T09:14:08.087Z,31.00
2023-05-19T09:15:08.102Z,30.97
2023-05-19T09:16:08.390Z,30.96
2023-05-19T09:17:08.212Z,30.92
2023-05-19T09:18:08.117Z,30.94
2023-05-19T09:19:08.133Z,30.91
2023-05-19T09:20:08.071Z,30.94
2023-05-19T09:21:08.051Z,30.93
2023-05-19T09:22:08.037Z,30.94
2023-05-19T09:23:08.046Z,30.93
2023-05-19T09:24:08.063Z,30.95
2023-05-19T09:25:08.096Z,30.94
2023-05-19T09:26:08.207Z,30.95
2023-05-19T09:27:08.057Z,30.94
2023-05-19T09:28:08.027Z,30.92
2023-05-19T09:29:07.985Z,30.92
2023-05-19T09:30:07.994Z,30.97
2023-05-19T09:31:07.982Z,30.94
2023-05-19T09:32:08.003Z,30.92
2023-05-19T09:33:08.065Z,30.93
2023-05-19T09:34:07.955Z,30.93
2023-05-19T09:35:07.976Z,30.92
2023-05-19T09:36:07.942Z,30.91
2023-05-19T09:37:07.945Z,30.88
2023-05-19T09:38:07.925Z,30.88
2023-05-19T09:39:07.913Z,30.90
2023-05-19T09:40:07.915Z,30.93
2023-05-19T09:41:07.929Z,30.93
2023-05-19T09:42:07.919Z,30.95
2023-05-19T09:43:07.939Z,30.93
2023-05-19T09:44:07.954Z,30.93
2023-05-19T09:45:07.893Z,30.87
2023-05-19T09:46:08.063Z,30.81
2023-05-19T09:47:07.881Z,30.78
2023-05-19T09:48:08.105Z,30.72
2023-05-19T09:49:07.873Z,30.71
2023-05-19T09:50:07.865Z,30.73
2023-05-19T09:51:08.065Z,30.88
2023-05-19T09:52:07.922Z,30.96
2023-05-19T09:53:07.850Z,31.08
2023-05-19T09:54:07.835Z,31.14
2023-05-19T09:55:07.819Z,31.18
2023-05-19T09:56:07.832Z,31.24
2023-05-19T09:57:08.621Z,31.28
2023-05-19T09:58:07.788Z,31.33
2023-05-19T09:59:07.788Z,31.38
2023-05-19T10:00:07.784Z,31.39
2023-05-19T10:01:07.793Z,31.44
2023-05-19T10:02:07.777Z,31.46
2023-05-19T10:03:07.843Z,31.47
2023-05-19T10:04:07.759Z,31.48
2023-05-19T10:05:07.780Z,31.52
2023-05-19T10:06:07.737Z,31.53
2023-05-19T10:07:07.751Z,31.51
2023-05-19T10:08:07.741Z,31.55
2023-05-19T10:09:07.735Z,31.56
2023-05-19T10:10:07.720Z,31.56
2023-05-19T10:11:07.721Z,31.60
2023-05-19T10:12:07.708Z,31.60
2023-05-19T10:13:07.729Z,31.60
2023-05-19T10:14:07.694Z,31.65
2023-05-19T10:15:07.694Z,31.65
2023-05-19T10:16:07.760Z,31.65
2023-05-19T10:17:07.795Z,31.68
2023-05-19T10:18:07.770Z,31.67
2023-05-19T10:19:07.783Z,31.70
2023-05-19T10:20:07.801Z,31.69
2023-05-19T10:21:07.814Z,31.69
2023-05-19T10:22:07.843Z,31.74
2023-05-19T10:23:07.890Z,31.71
2023-05-19T10:24:07.930Z,31.70
2023-05-19T10:25:08.013Z,31.72
2023-05-19T10:26:07.987Z,31.74
2023-05-19T10:27:08.033Z,31.77
2023-05-19T10:28:08.064Z,31.78
2023-05-19T10:29:08.090Z,31.78
2023-05-19T10:30:09.355Z,31.79
2023-05-19T10:31:08.143Z,31.77
2023-05-19T10:32:08.201Z,31.76
2023-05-19T10:33:08.133Z,31.76
2023-05-19T10:34:08.093Z,31.79
2023-05-19T10:35:08.079Z,31.81
2023-05-19T10:36:08.085Z,31.80
2023-05-19T10:37:08.097Z,31.71
2023-05-19T10:38:08.084Z,31.65
2023-05-19T10:39:08.098Z,31.59
2023-05-19T10:40:08.055Z,31.55
2023-05-19T10:41:08.048Z,31.50
2023-05-19T10:42:08.055Z,31.53
2023-05-19T10:43:08.054Z,31.49
2023-05-19T10:44:08.021Z,31.47
2023-05-19T10:45:08.026Z,31.45
2023-05-19T10:46:08.019Z,31.45
2023-05-19T10:47:08.092Z,31.42
2023-05-19T10:48:08.060Z,31.42
2023-05-19T10:49:08.002Z,31.45
2023-05-19T10:50:07.988Z,31.42
2023-05-19T10:51:07.981Z,31.39
2023-05-19T10:52:07.983Z,31.38
2023-05-19T10:53:07.993Z,31.36
2023-05-19T10:54:07.971Z,31.36
2023-05-19T10:55:07.984Z,31.35
2023-05-19T10:56:07.979Z,31.31
2023-05-19T10:57:07.989Z,31.31
2023-05-19T10:58:07.975Z,31.29
2023-05-19T10:59:07.936Z,31.28
2023-05-19T11:00:07.956Z,31.26
2023-05-19T11:01:07.955Z,31.26
2023-05-19T11:02:08.046Z,31.26
2023-05-19T11:03:07.999Z,31.24
2023-05-19T11:04:08.064Z,31.24
2023-05-19T11:05:07.914Z,31.22
2023-05-19T11:06:07.935Z,31.22
2023-05-19T11:07:07.897Z,31.23
2023-05-19T11:08:07.911Z,31.21
2023-05-19T11:09:07.887Z,31.18
2023-05-19T11:10:07.877Z,31.17
2023-05-19T11:11:07.904Z,31.15
2023-05-19T11:12:07.890Z,31.13
2023-05-19T11:13:07.898Z,31.14
2023-05-19T11:14:07.870Z,31.15
2023-05-19T11:15:07.855Z,31.13
2023-05-19T11:16:07.877Z,31.06
2023-05-19T11:17:07.891Z,31.11
2023-05-19T11:18:07.947Z,31.19
2023-05-19T11:19:07.933Z,31.30
2023-05-19T11:20:07.905Z,31.35
2023-05-19T11:21:07.923Z,31.42
2023-05-19T11:22:07.919Z,31.45
2023-05-19T11:23:08.064Z,31.49
2023-05-19T11:24:07.891Z,31.55
2023-05-19T11:25:07.776Z,31.53
2023-05-19T11:26:07.768Z,31.60
2023-05-19T11:27:07.759Z,31.57
2023-05-19T11:28:07.773Z,31.65
2023-05-19T11:29:07.802Z,31.63
2023-05-19T11:30:07.761Z,31.70
2023-05-19T11:31:07.730Z,31.70
2023-05-19T11:32:07.781Z,31.74
2023-05-19T11:33:07.821Z,31.73
2023-05-19T11:34:07.713Z,31.76
2023-05-19T11:35:07.700Z,31.80
2023-05-19T11:36:07.749Z,31.82
2023-05-19T11:37:07.705Z,31.77
2023-05-19T11:38:07.727Z,31.81
2023-05-19T11:39:07.682Z,31.88
2023-05-19T11:40:07.674Z,31.87
2023-05-19T11:41:07.652Z,31.86
2023-05-19T11:42:07.663Z,31.87
2023-05-19T11:43:07.675Z,31.90
2023-05-19T11:44:07.652Z,31.93
2023-05-19T11:45:07.636Z,31.97
2023-05-19T11:46:07.761Z,31.96
2023-05-19T11:47:07.706Z,31.95
2023-05-19T11:48:07.766Z,31.98
2023-05-19T11:49:07.734Z,31.95
2023-05-19T11:50:07.791Z,32.05
2023-05-19T11:51:07.795Z,32.07
2023-05-19T11:52:07.825Z,32.11
2023-05-19T11:53:07.849Z,32.10
2023-05-19T11:54:07.872Z,32.10
2023-05-19T11:55:07.897Z,32.09
2023-05-19T11:56:07.931Z,32.14
2023-05-19T11:57:07.964Z,32.13
2023-05-19T11:58:07.971Z,32.15
2023-05-19T11:59:08.025Z,32.16
2023-05-19T12:00:08.060Z,32.18
2023-05-19T12:01:08.074Z,32.24
2023-05-19T12:02:08.130Z,32.18
2023-05-19T12:03:08.491Z,32.11
2023-05-19T12:04:08.272Z,32.06
2023-05-19T12:05:08.245Z,31.99
2023-05-19T12:06:08.277Z,32.03
2023-05-19T12:07:08.279Z,31.94
2023-05-19T12:08:08.294Z,31.87
2023-05-19T12:09:08.340Z,31.87
2023-05-19T12:10:08.396Z,31.87
2023-05-19T12:11:08.402Z,31.83
2023-05-19T12:12:08.465Z,31.80
2023-05-19T12:13:08.445Z,31.83
2023-05-19T12:14:08.462Z,31.80
2023-05-19T12:15:08.471Z,31.81
2023-05-19T12:16:08.466Z,31.78
2023-05-19T12:17:08.602Z,31.78
2023-05-19T12:18:08.626Z,31.79
2023-05-19T12:19:08.578Z,31.83
2023-05-19T12:20:08.527Z,31.78
2023-05-19T12:21:08.520Z,31.78
2023-05-19T12:22:08.571Z,31.77
2023-05-19T12:23:08.584Z,31.81
2023-05-19T12:24:08.686Z,31.78
2023-05-19T12:25:08.731Z,31.83
2023-05-19T12:26:08.707Z,31.84
2023-05-19T12:27:08.828Z,31.81
2023-05-19T12:28:08.741Z,31.86
2023-05-19T12:29:08.782Z,31.83
2023-05-19T12:30:08.768Z,31.86
2023-05-19T12:31:08.831Z,31.82
2023-05-19T12:32:08.864Z,31.88
2023-05-19T12:33:08.819Z,31.88
2023-05-19T12:34:08.791Z,31.93
2023-05-19T12:35:08.792Z,31.90
2023-05-19T12:36:08.802Z,31.92
2023-05-19T12:37:08.823Z,31.95
2023-05-19T12:38:08.806Z,31.97
2023-05-19T12:39:08.787Z,31.99
2023-05-19T12:40:08.952Z,32.02
2023-05-19T12:41:08.890Z,32.01
2023-05-19T12:42:08.921Z,32.00
2023-05-19T12:43:08.912Z,32.04
2023-05-19T12:44:08.888Z,32.07
2023-05-19T12:45:08.886Z,32.12
2023-05-19T12:46:08.985Z,32.12
2023-05-19T12:47:09.093Z,32.15
2023-05-19T12:48:09.205Z,32.16
2023-05-19T12:49:09.169Z,32.16
2023-05-19T12:50:09.233Z,32.19
2023-05-19T12:51:09.151Z,32.20
2023-05-19T12:52:12.792Z,32.24
2023-05-19T12:53:09.163Z,32.27
2023-05-19T12:54:09.167Z,32.26